createdAt,value
2022-10-22T00:03:31.000Z,982.81
2022-10-22T00:18:11.000Z,982.69
2022-10-22T00:32:49.000Z,982.53
2022-10-22T00:47:25.000Z,982.53
2022-10-22T01:02:04.000Z,982.51
2022-10-22T01:16:43.000Z,982.62
2022-10-22T01:31:22.000Z,982.40
2022-10-22T01:46:02.000Z,982.35
2022-10-22T02:00:41.000Z,982.55
2022-10-22T02:15:21.000Z,982.61
2022-10-22T02:29:58.000Z,982.53
2022-10-22T02:44:38.000Z,982.71
2022-10-22T02:59:18.000Z,982.86
2022-10-22T03:13:59.000Z,982.90
2022-10-22T03:28:38.000Z,982.85
2022-10-22T04:12:36.000Z,983.39
2022-10-22T04:27:12.000Z,983.49
2022-10-22T04:41:50.000Z,983.60
2022-10-22T04:56:29.000Z,983.76
2022-10-22T05:40:19.000Z,983.96
2022-10-22T05:54:59.000Z,983.99
2022-10-22T06:09:38.000Z,984.10
2022-10-22T06:24:17.000Z,984.45
2022-10-22T06:38:54.000Z,984.83
2022-10-22T06:53:32.000Z,985.01
2022-10-22T07:08:13.000Z,985.22
2022-10-22T07:22:54.000Z,985.35
2022-10-22T07:37:33.000Z,985.49
2022-10-22T07:52:13.000Z,985.81
2022-10-22T08:06:53.000Z,985.97
2022-10-22T08:21:31.000Z,986.08
2022-10-22T08:36:14.000Z,986.22
2022-10-22T08:50:49.000Z,986.31
2022-10-22T09:05:23.000Z,986.45
2022-10-22T09:20:01.000Z,986.62
2022-10-22T09:34:40.000Z,986.71
2022-10-22T09:49:20.000Z,986.71
2022-10-22T10:03:55.000Z,986.76
2022-10-22T10:18:35.000Z,986.84
2022-10-22T10:33:15.000Z,986.87
2022-10-22T10:47:52.000Z,987.01
2022-10-22T11:02:31.000Z,987.05
2022-10-22T11:17:09.000Z,987.05
2022-10-22T11:31:46.000Z,987.09
2022-10-22T11:46:27.000Z,987.06
2022-10-22T12:01:08.000Z,987.04
2022-10-22T12:15:44.000Z,986.90
2022-10-22T12:30:22.000Z,986.97
2022-10-22T12:45:03.000Z,986.99
2022-10-22T12:59:40.000Z,986.86
2022-10-22T13:14:19.000Z,986.81
2022-10-22T13:28:58.000Z,986.78
2022-10-22T13:43:38.000Z,986.80
2022-10-22T13:58:17.000Z,986.79
2022-10-22T14:12:54.000Z,986.82
2022-10-22T14:27:30.000Z,986.71
2022-10-22T14:42:08.000Z,986.72
2022-10-22T14:56:46.000Z,986.90
2022-10-22T15:11:32.000Z,987.07
2022-10-22T15:16:28.000Z,986.98
2022-10-22T15:31:06.000Z,986.91
2022-10-22T15:45:35.000Z,987.00
2022-10-22T16:00:10.000Z,987.04
2022-10-22T16:14:45.000Z,986.90
2022-10-22T16:29:20.000Z,987.00
2022-10-22T16:43:56.000Z,987.13
2022-10-22T16:58:31.000Z,987.23
2022-10-22T17:13:09.000Z,987.40
2022-10-22T17:27:48.000Z,987.57
2022-10-22T17:42:27.000Z,987.60
2022-10-22T17:57:05.000Z,987.73
2022-10-22T18:11:44.000Z,987.65
2022-10-22T18:26:21.000Z,987.70
2022-10-22T18:41:01.000Z,987.69
2022-10-22T18:55:38.000Z,987.65
2022-10-22T19:10:16.000Z,987.62
2022-10-22T19:24:55.000Z,987.53
2022-10-22T19:39:32.000Z,987.54
2022-10-22T19:54:07.000Z,987.48
2022-10-22T20:08:46.000Z,987.55
2022-10-22T20:23:22.000Z,987.71
2022-10-22T20:38:01.000Z,987.72
2022-10-22T20:52:41.000Z,987.52
2022-10-22T21:07:17.000Z,987.59
2022-10-22T21:21:55.000Z,987.64
2022-10-22T21:36:33.000Z,987.67
2022-10-22T21:51:11.000Z,987.72
2022-10-22T22:05:50.000Z,987.66
2022-10-22T22:20:21.000Z,987.55
2022-10-22T22:34:59.000Z,987.45
2022-10-22T22:49:38.000Z,987.27
2022-10-22T23:04:16.000Z,987.15
2022-10-22T23:18:53.000Z,987.11
2022-10-22T23:33:32.000Z,987.15
2022-10-22T23:48:09.000Z,987.12
